sensor_id;sensor_type;location;lat;lon;timestamp;temperature;humidity
33827;DHT22;20128;45.582;5.298;2022-10-15T00:00:44;17.90;78.00
33827;DHT22;20128;45.582;5.298;2022-10-15T00:03:10;17.90;78.20
33827;DHT22;20128;45.582;5.298;2022-10-15T00:05:37;17.90;78.50
33827;DHT22;20128;45.582;5.298;2022-10-15T00:08:04;17.90;78.80
33827;DHT22;20128;45.582;5.298;2022-10-15T00:10:30;17.90;78.30
33827;DHT22;20128;45.582;5.298;2022-10-15T00:12:55;17.90;78.50
33827;DHT22;20128;45.582;5.298;2022-10-15T00:15:21;17.90;78.20
33827;DHT22;20128;45.582;5.298;2022-10-15T00:17:47;17.90;78.60
33827;DHT22;20128;45.582;5.298;2022-10-15T00:20:13;17.90;78.90
33827;DHT22;20128;45.582;5.298;2022-10-15T00:22:39;17.90;79.70
33827;DHT22;20128;45.582;5.298;2022-10-15T00:25:05;17.80;79.40
33827;DHT22;20128;45.582;5.298;2022-10-15T00:27:32;17.80;80.00
33827;DHT22;20128;45.582;5.298;2022-10-15T00:29:58;17.80;80.50
33827;DHT22;20128;45.582;5.298;2022-10-15T00:32:25;17.90;80.60
33827;DHT22;20128;45.582;5.298;2022-10-15T00:34:51;17.90;80.50
33827;DHT22;20128;45.582;5.298;2022-10-15T00:37:16;17.90;81.10
33827;DHT22;20128;45.582;5.298;2022-10-15T00:39:42;17.90;81.40
33827;DHT22;20128;45.582;5.298;2022-10-15T00:42:09;17.90;81.40
33827;DHT22;20128;45.582;5.298;2022-10-15T00:47:12;17.90;81.80
33827;DHT22;20128;45.582;5.298;2022-10-15T00:49:43;17.90;81.70
33827;DHT22;20128;45.582;5.298;2022-10-15T00:52:21;17.90;81.70
33827;DHT22;20128;45.582;5.298;2022-10-15T00:54:58;17.90;81.80
33827;DHT22;20128;45.582;5.298;2022-10-15T00:57:26;17.90;82.60
33827;DHT22;20128;45.582;5.298;2022-10-15T00:59:55;17.90;82.30
33827;DHT22;20128;45.582;5.298;2022-10-15T01:02:21;17.90;82.30
33827;DHT22;20128;45.582;5.298;2022-10-15T01:04:48;17.80;82.10
33827;DHT22;20128;45.582;5.298;2022-10-15T01:07:14;17.80;81.60
33827;DHT22;20128;45.582;5.298;2022-10-15T01:09:40;17.70;81.70
33827;DHT22;20128;45.582;5.298;2022-10-15T01:23:38;17.60;81.90
33827;DHT22;20128;45.582;5.298;2022-10-15T01:34:37;17.60;80.90
33827;DHT22;20128;45.582;5.298;2022-10-15T01:39:54;17.60;80.10
33827;DHT22;20128;45.582;5.298;2022-10-15T01:42:30;17.60;79.80
33827;DHT22;20128;45.582;5.298;2022-10-15T01:45:02;17.60;79.60
33827;DHT22;20128;45.582;5.298;2022-10-15T01:47:35;17.60;79.30
33827;DHT22;20128;45.582;5.298;2022-10-15T01:50:03;17.60;79.50
33827;DHT22;20128;45.582;5.298;2022-10-15T01:52:33;17.60;79.40
33827;DHT22;20128;45.582;5.298;2022-10-15T01:55:03;17.50;79.40
33827;DHT22;20128;45.582;5.298;2022-10-15T01:57:31;17.50;79.40
33827;DHT22;20128;45.582;5.298;2022-10-15T01:59:58;17.50;79.30
33827;DHT22;20128;45.582;5.298;2022-10-15T02:02:24;17.50;79.30
33827;DHT22;20128;45.582;5.298;2022-10-15T02:04:49;17.40;79.30
33827;DHT22;20128;45.582;5.298;2022-10-15T02:07:39;17.50;79.30
33827;DHT22;20128;45.582;5.298;2022-10-15T02:13:42;17.40;79.50
33827;DHT22;20128;45.582;5.298;2022-10-15T02:19:04;17.40;79.80
33827;DHT22;20128;45.582;5.298;2022-10-15T02:21:38;17.40;80.40
33827;DHT22;20128;45.582;5.298;2022-10-15T02:24:31;17.40;81.10
33827;DHT22;20128;45.582;5.298;2022-10-15T02:26:56;17.40;81.10
33827;DHT22;20128;45.582;5.298;2022-10-15T02:29:26;17.30;81.20
33827;DHT22;20128;45.582;5.298;2022-10-15T02:31:56;17.30;81.00
33827;DHT22;20128;45.582;5.298;2022-10-15T02:34:25;17.30;81.50
33827;DHT22;20128;45.582;5.298;2022-10-15T02:36:52;17.30;81.50
33827;DHT22;20128;45.582;5.298;2022-10-15T02:39:21;17.30;82.20
33827;DHT22;20128;45.582;5.298;2022-10-15T02:41:48;17.20;82.30
33827;DHT22;20128;45.582;5.298;2022-10-15T02:44:14;17.20;82.50
33827;DHT22;20128;45.582;5.298;2022-10-15T02:46:40;17.20;82.50
33827;DHT22;20128;45.582;5.298;2022-10-15T02:49:05;17.20;82.70
33827;DHT22;20128;45.582;5.298;2022-10-15T02:51:32;17.20;82.80
33827;DHT22;20128;45.582;5.298;2022-10-15T02:53:58;17.20;82.90
33827;DHT22;20128;45.582;5.298;2022-10-15T02:56:24;17.20;83.00
33827;DHT22;20128;45.582;5.298;2022-10-15T02:58:50;17.20;83.10
33827;DHT22;20128;45.582;5.298;2022-10-15T03:01:16;17.20;82.60
33827;DHT22;20128;45.582;5.298;2022-10-15T03:03:42;17.20;82.60
33827;DHT22;20128;45.582;5.298;2022-10-15T03:06:08;17.20;82.90
33827;DHT22;20128;45.582;5.298;2022-10-15T03:08:33;17.20;82.80
33827;DHT22;20128;45.582;5.298;2022-10-15T03:11:00;17.10;82.70
33827;DHT22;20128;45.582;5.298;2022-10-15T03:13:27;17.00;82.60
33827;DHT22;20128;45.582;5.298;2022-10-15T03:15:52;17.00;82.80
33827;DHT22;20128;45.582;5.298;2022-10-15T03:18:18;17.00;83.10
33827;DHT22;20128;45.582;5.298;2022-10-15T03:20:43;17.00;83.10
33827;DHT22;20128;45.582;5.298;2022-10-15T03:23:11;17.00;82.60
33827;DHT22;20128;45.582;5.298;2022-10-15T03:25:37;17.00;82.80
33827;DHT22;20128;45.582;5.298;2022-10-15T03:28:03;17.00;83.10
33827;DHT22;20128;45.582;5.298;2022-10-15T03:30:28;17.00;83.00
33827;DHT22;20128;45.582;5.298;2022-10-15T03:32:54;17.00;83.20
33827;DHT22;20128;45.582;5.298;2022-10-15T03:35:19;17.00;83.20
33827;DHT22;20128;45.582;5.298;2022-10-15T03:37:45;17.00;83.00
33827;DHT22;20128;45.582;5.298;2022-10-15T03:40:11;17.00;82.70
33827;DHT22;20128;45.582;5.298;2022-10-15T03:42:36;17.00;82.90
33827;DHT22;20128;45.582;5.298;2022-10-15T03:45:02;17.00;83.00
33827;DHT22;20128;45.582;5.298;2022-10-15T03:47:28;17.00;82.90
33827;DHT22;20128;45.582;5.298;2022-10-15T03:49:53;17.00;82.90
33827;DHT22;20128;45.582;5.298;2022-10-15T03:52:19;16.90;82.70
33827;DHT22;20128;45.582;5.298;2022-10-15T03:54:45;16.80;83.10
33827;DHT22;20128;45.582;5.298;2022-10-15T03:57:10;16.80;82.80
33827;DHT22;20128;45.582;5.298;2022-10-15T03:59:36;16.80;82.60
33827;DHT22;20128;45.582;5.298;2022-10-15T04:02:03;16.70;82.60
33827;DHT22;20128;45.582;5.298;2022-10-15T04:04:29;16.60;82.50
33827;DHT22;20128;45.582;5.298;2022-10-15T04:06:54;16.60;82.70
33827;DHT22;20128;45.582;5.298;2022-10-15T04:09:20;16.50;82.70
33827;DHT22;20128;45.582;5.298;2022-10-15T04:11:45;16.40;82.40
33827;DHT22;20128;45.582;5.298;2022-10-15T04:14:11;16.20;82.60
33827;DHT22;20128;45.582;5.298;2022-10-15T04:16:37;16.20;82.80
33827;DHT22;20128;45.582;5.298;2022-10-15T04:19:02;16.10;82.80
33827;DHT22;20128;45.582;5.298;2022-10-15T04:21:28;16.00;83.60
33827;DHT22;20128;45.582;5.298;2022-10-15T04:23:54;15.80;83.30
33827;DHT22;20128;45.582;5.298;2022-10-15T04:26:19;15.80;83.70
33827;DHT22;20128;45.582;5.298;2022-10-15T04:28:47;15.70;83.90
33827;DHT22;20128;45.582;5.298;2022-10-15T04:31:13;15.70;84.10
33827;DHT22;20128;45.582;5.298;2022-10-15T04:33:38;15.70;84.30
33827;DHT22;20128;45.582;5.298;2022-10-15T04:36:11;15.70;84.50
33827;DHT22;20128;45.582;5.298;2022-10-15T04:38:37;15.60;84.50
33827;DHT22;20128;45.582;5.298;2022-10-15T04:41:05;15.60;84.60
33827;DHT22;20128;45.582;5.298;2022-10-15T04:43:31;15.60;84.60
33827;DHT22;20128;45.582;5.298;2022-10-15T04:45:59;15.60;84.70
33827;DHT22;20128;45.582;5.298;2022-10-15T04:48:26;15.60;84.70
33827;DHT22;20128;45.582;5.298;2022-10-15T04:50:52;15.70;84.80
33827;DHT22;20128;45.582;5.298;2022-10-15T04:53:18;15.70;84.90
33827;DHT22;20128;45.582;5.298;2022-10-15T04:55:44;15.70;84.80
33827;DHT22;20128;45.582;5.298;2022-10-15T04:58:09;15.60;84.80
33827;DHT22;20128;45.582;5.298;2022-10-15T05:00:37;15.60;84.80
33827;DHT22;20128;45.582;5.298;2022-10-15T05:03:04;15.70;84.80
33827;DHT22;20128;45.582;5.298;2022-10-15T05:05:30;15.70;84.80
33827;DHT22;20128;45.582;5.298;2022-10-15T05:08:02;15.60;84.80
33827;DHT22;20128;45.582;5.298;2022-10-15T05:10:28;15.60;84.80
33827;DHT22;20128;45.582;5.298;2022-10-15T05:12:54;15.70;84.90
33827;DHT22;20128;45.582;5.298;2022-10-15T05:15:19;15.70;84.80
33827;DHT22;20128;45.582;5.298;2022-10-15T05:17:45;15.70;84.80
33827;DHT22;20128;45.582;5.298;2022-10-15T05:20:11;15.70;84.70
33827;DHT22;20128;45.582;5.298;2022-10-15T05:22:36;15.70;84.20
33827;DHT22;20128;45.582;5.298;2022-10-15T05:25:02;15.70;84.10
33827;DHT22;20128;45.582;5.298;2022-10-15T05:27:28;15.70;84.20
33827;DHT22;20128;45.582;5.298;2022-10-15T05:29:53;15.70;84.20
33827;DHT22;20128;45.582;5.298;2022-10-15T05:32:19;15.70;84.00
33827;DHT22;20128;45.582;5.298;2022-10-15T05:34:44;15.60;84.10
33827;DHT22;20128;45.582;5.298;2022-10-15T05:37:10;15.50;84.10
33827;DHT22;20128;45.582;5.298;2022-10-15T05:39:39;15.50;84.40
33827;DHT22;20128;45.582;5.298;2022-10-15T05:42:18;15.40;84.30
33827;DHT22;20128;45.582;5.298;2022-10-15T05:45:10;15.40;84.50
33827;DHT22;20128;45.582;5.298;2022-10-15T05:47:44;15.30;84.50
33827;DHT22;20128;45.582;5.298;2022-10-15T05:50:20;15.30;84.50
33827;DHT22;20128;45.582;5.298;2022-10-15T05:52:45;15.20;84.50
33827;DHT22;20128;45.582;5.298;2022-10-15T06:18:57;15.90;83.80
33827;DHT22;20128;45.582;5.298;2022-10-15T06:28:38;16.20;82.60
33827;DHT22;20128;45.582;5.298;2022-10-15T06:31:07;16.00;82.20
33827;DHT22;20128;45.582;5.298;2022-10-15T06:33:35;15.80;82.60
33827;DHT22;20128;45.582;5.298;2022-10-15T06:36:10;15.80;82.80
33827;DHT22;20128;45.582;5.298;2022-10-15T06:38:41;15.70;83.10
33827;DHT22;20128;45.582;5.298;2022-10-15T06:44:49;15.70;83.40
33827;DHT22;20128;45.582;5.298;2022-10-15T06:47:14;15.80;83.40
33827;DHT22;20128;45.582;5.298;2022-10-15T06:49:40;15.90;83.40
33827;DHT22;20128;45.582;5.298;2022-10-15T06:52:06;16.00;83.40
33827;DHT22;20128;45.582;5.298;2022-10-15T06:54:31;16.00;83.30
33827;DHT22;20128;45.582;5.298;2022-10-15T06:57:02;16.10;83.40
33827;DHT22;20128;45.582;5.298;2022-10-15T06:59:30;16.20;83.50
33827;DHT22;20128;45.582;5.298;2022-10-15T07:01:59;16.30;83.40
33827;DHT22;20128;45.582;5.298;2022-10-15T07:04:25;16.30;83.10
33827;DHT22;20128;45.582;5.298;2022-10-15T07:06:51;16.40;83.20
33827;DHT22;20128;45.582;5.298;2022-10-15T07:09:19;16.40;82.90
33827;DHT22;20128;45.582;5.298;2022-10-15T07:12:11;16.50;82.80
33827;DHT22;20128;45.582;5.298;2022-10-15T07:14:40;16.50;82.60
33827;DHT22;20128;45.582;5.298;2022-10-15T07:17:06;16.40;82.60
33827;DHT22;20128;45.582;5.298;2022-10-15T07:19:38;16.40;82.90
33827;DHT22;20128;45.582;5.298;2022-10-15T07:22:04;16.30;82.80
33827;DHT22;20128;45.582;5.298;2022-10-15T07:24:30;16.40;82.80
33827;DHT22;20128;45.582;5.298;2022-10-15T07:26:58;16.30;82.90
33827;DHT22;20128;45.582;5.298;2022-10-15T07:29:29;16.20;83.00
33827;DHT22;20128;45.582;5.298;2022-10-15T07:31:58;16.20;83.40
33827;DHT22;20128;45.582;5.298;2022-10-15T07:34:24;16.20;83.60
33827;DHT22;20128;45.582;5.298;2022-10-15T07:36:50;16.20;83.70
33827;DHT22;20128;45.582;5.298;2022-10-15T07:39:15;16.20;83.90
33827;DHT22;20128;45.582;5.298;2022-10-15T07:41:43;16.20;83.90
33827;DHT22;20128;45.582;5.298;2022-10-15T07:44:10;16.30;84.00
33827;DHT22;20128;45.582;5.298;2022-10-15T07:46:35;16.30;84.00
33827;DHT22;20128;45.582;5.298;2022-10-15T07:49:01;16.30;84.00
33827;DHT22;20128;45.582;5.298;2022-10-15T07:51:27;16.40;84.00
33827;DHT22;20128;45.582;5.298;2022-10-15T07:53:52;16.40;83.90
33827;DHT22;20128;45.582;5.298;2022-10-15T07:56:18;16.30;83.80
33827;DHT22;20128;45.582;5.298;2022-10-15T07:58:43;16.30;83.70
33827;DHT22;20128;45.582;5.298;2022-10-15T08:01:16;16.30;83.70
33827;DHT22;20128;45.582;5.298;2022-10-15T08:03:43;16.40;83.70
33827;DHT22;20128;45.582;5.298;2022-10-15T08:06:08;16.40;83.80
33827;DHT22;20128;45.582;5.298;2022-10-15T08:08:35;16.50;83.80
33827;DHT22;20128;45.582;5.298;2022-10-15T08:11:12;16.60;83.90
33827;DHT22;20128;45.582;5.298;2022-10-15T08:13:39;16.60;83.80
33827;DHT22;20128;45.582;5.298;2022-10-15T08:16:09;16.70;84.10
33827;DHT22;20128;45.582;5.298;2022-10-15T08:18:35;16.80;84.20
33827;DHT22;20128;45.582;5.298;2022-10-15T08:21:03;16.80;83.90
33827;DHT22;20128;45.582;5.298;2022-10-15T08:23:29;16.90;84.10
33827;DHT22;20128;45.582;5.298;2022-10-15T08:25:59;17.00;84.20
33827;DHT22;20128;45.582;5.298;2022-10-15T08:28:29;17.10;84.40
33827;DHT22;20128;45.582;5.298;2022-10-15T08:31:00;17.20;84.50
33827;DHT22;20128;45.582;5.298;2022-10-15T08:33:27;17.30;84.80
33827;DHT22;20128;45.582;5.298;2022-10-15T08:35:53;17.40;84.30
33827;DHT22;20128;45.582;5.298;2022-10-15T08:38:19;17.60;84.00
33827;DHT22;20128;45.582;5.298;2022-10-15T08:40:50;17.60;83.80
33827;DHT22;20128;45.582;5.298;2022-10-15T08:46:03;17.80;82.90
33827;DHT22;20128;45.582;5.298;2022-10-15T08:48:38;18.00;83.20
33827;DHT22;20128;45.582;5.298;2022-10-15T08:51:10;18.10;83.60
33827;DHT22;20128;45.582;5.298;2022-10-15T08:53:42;18.30;82.80
33827;DHT22;20128;45.582;5.298;2022-10-15T08:56:29;18.50;82.30
33827;DHT22;20128;45.582;5.298;2022-10-15T09:04:23;19.20;80.40
33827;DHT22;20128;45.582;5.298;2022-10-15T09:07:03;19.40;79.20
33827;DHT22;20128;45.582;5.298;2022-10-15T09:12:21;20.00;75.90
33827;DHT22;20128;45.582;5.298;2022-10-15T09:14:56;20.20;75.00
33827;DHT22;20128;45.582;5.298;2022-10-15T09:17:24;20.40;73.60
33827;DHT22;20128;45.582;5.298;2022-10-15T09:19:54;20.50;72.30
33827;DHT22;20128;45.582;5.298;2022-10-15T09:22:26;20.70;73.10
33827;DHT22;20128;45.582;5.298;2022-10-15T09:24:52;20.90;72.20
33827;DHT22;20128;45.582;5.298;2022-10-15T09:27:31;21.10;71.00
33827;DHT22;20128;45.582;5.298;2022-10-15T09:35:50;21.60;69.50
33827;DHT22;20128;45.582;5.298;2022-10-15T09:38:38;21.80;68.90
33827;DHT22;20128;45.582;5.298;2022-10-15T09:43:41;22.10;65.70
33827;DHT22;20128;45.582;5.298;2022-10-15T09:46:09;22.30;64.70
33827;DHT22;20128;45.582;5.298;2022-10-15T09:48:40;22.50;64.20
33827;DHT22;20128;45.582;5.298;2022-10-15T09:56:19;22.90;61.20
33827;DHT22;20128;45.582;5.298;2022-10-15T09:58:56;23.00;59.60
33827;DHT22;20128;45.582;5.298;2022-10-15T10:01:31;23.10;60.00
33827;DHT22;20128;45.582;5.298;2022-10-15T10:04:18;23.30;58.60
33827;DHT22;20128;45.582;5.298;2022-10-15T10:09:22;23.50;58.60
33827;DHT22;20128;45.582;5.298;2022-10-15T10:12:03;23.60;56.70
33827;DHT22;20128;45.582;5.298;2022-10-15T10:15:06;23.70;57.60
33827;DHT22;20128;45.582;5.298;2022-10-15T10:17:34;23.90;58.80
33827;DHT22;20128;45.582;5.298;2022-10-15T10:20:16;24.00;58.80
33827;DHT22;20128;45.582;5.298;2022-10-15T10:22:47;24.10;56.70
33827;DHT22;20128;45.582;5.298;2022-10-15T10:27:58;24.20;55.80
33827;DHT22;20128;45.582;5.298;2022-10-15T10:30:24;24.30;56.10
33827;DHT22;20128;45.582;5.298;2022-10-15T10:32:59;24.40;55.40
33827;DHT22;20128;45.582;5.298;2022-10-15T10:35:42;24.50;54.80
33827;DHT22;20128;45.582;5.298;2022-10-15T10:38:36;24.60;54.30
33827;DHT22;20128;45.582;5.298;2022-10-15T10:41:07;24.60;53.20
33827;DHT22;20128;45.582;5.298;2022-10-15T10:43:35;24.70;53.30
33827;DHT22;20128;45.582;5.298;2022-10-15T10:46:17;24.70;53.60
33827;DHT22;20128;45.582;5.298;2022-10-15T10:48:47;24.80;54.60
33827;DHT22;20128;45.582;5.298;2022-10-15T10:51:19;24.90;54.10
33827;DHT22;20128;45.582;5.298;2022-10-15T10:54:05;24.90;53.70
33827;DHT22;20128;45.582;5.298;2022-10-15T10:56:41;24.80;54.50
33827;DHT22;20128;45.582;5.298;2022-10-15T10:59:18;24.90;55.20
33827;DHT22;20128;45.582;5.298;2022-10-15T11:01:46;24.90;55.90
33827;DHT22;20128;45.582;5.298;2022-10-15T11:04:13;25.00;55.10
33827;DHT22;20128;45.582;5.298;2022-10-15T11:15:15;24.70;54.00
33827;DHT22;20128;45.582;5.298;2022-10-15T11:23:40;24.50;54.10
33827;DHT22;20128;45.582;5.298;2022-10-15T11:48:51;23.80;55.40
33827;DHT22;20128;45.582;5.298;2022-10-15T11:56:53;23.70;55.30
33827;DHT22;20128;45.582;5.298;2022-10-15T12:04:39;23.70;54.00
33827;DHT22;20128;45.582;5.298;2022-10-15T12:07:14;23.60;54.20
33827;DHT22;20128;45.582;5.298;2022-10-15T12:09:45;23.60;54.90
33827;DHT22;20128;45.582;5.298;2022-10-15T12:12:58;23.50;55.20
33827;DHT22;20128;45.582;5.298;2022-10-15T12:16:03;23.50;56.90
33827;DHT22;20128;45.582;5.298;2022-10-15T12:18:46;23.40;57.20
33827;DHT22;20128;45.582;5.298;2022-10-15T12:21:39;23.50;58.00
33827;DHT22;20128;45.582;5.298;2022-10-15T12:29:51;23.60;56.80
33827;DHT22;20128;45.582;5.298;2022-10-15T12:32:44;23.70;57.40
33827;DHT22;20128;45.582;5.298;2022-10-15T12:37:40;23.60;57.60
33827;DHT22;20128;45.582;5.298;2022-10-15T12:40:28;23.50;58.40
33827;DHT22;20128;45.582;5.298;2022-10-15T12:42:56;23.50;58.40
33827;DHT22;20128;45.582;5.298;2022-10-15T12:45:35;23.50;54.70
33827;DHT22;20128;45.582;5.298;2022-10-15T12:50:35;23.60;57.40
33827;DHT22;20128;45.582;5.298;2022-10-15T12:53:07;23.60;59.20
33827;DHT22;20128;45.582;5.298;2022-10-15T13:03:50;23.80;58.50
33827;DHT22;20128;45.582;5.298;2022-10-15T13:11:44;24.00;56.80
33827;DHT22;20128;45.582;5.298;2022-10-15T13:16:41;24.10;55.20
33827;DHT22;20128;45.582;5.298;2022-10-15T13:19:19;24.20;55.20
33827;DHT22;20128;45.582;5.298;2022-10-15T13:22:00;24.30;52.90
33827;DHT22;20128;45.582;5.298;2022-10-15T13:24:29;24.30;53.80
33827;DHT22;20128;45.582;5.298;2022-10-15T13:26:59;24.40;53.10
33827;DHT22;20128;45.582;5.298;2022-10-15T13:29:26;24.40;52.90
33827;DHT22;20128;45.582;5.298;2022-10-15T13:31:54;24.50;52.00
33827;DHT22;20128;45.582;5.298;2022-10-15T13:34:27;24.50;51.90
33827;DHT22;20128;45.582;5.298;2022-10-15T13:36:56;24.50;53.00
33827;DHT22;20128;45.582;5.298;2022-10-15T13:39:26;24.60;52.20
33827;DHT22;20128;45.582;5.298;2022-10-15T13:44:33;24.60;52.30
33827;DHT22;20128;45.582;5.298;2022-10-15T13:46:59;24.60;52.80
33827;DHT22;20128;45.582;5.298;2022-10-15T13:49:46;24.70;52.50
33827;DHT22;20128;45.582;5.298;2022-10-15T13:52:11;24.70;54.60
33827;DHT22;20128;45.582;5.298;2022-10-15T13:54:43;24.70;53.00
33827;DHT22;20128;45.582;5.298;2022-10-15T13:57:14;24.80;52.50
33827;DHT22;20128;45.582;5.298;2022-10-15T13:59:44;24.80;53.20
33827;DHT22;20128;45.582;5.298;2022-10-15T14:02:10;24.80;53.00
33827;DHT22;20128;45.582;5.298;2022-10-15T14:04:36;24.80;53.50
33827;DHT22;20128;45.582;5.298;2022-10-15T14:09:46;24.90;51.90
33827;DHT22;20128;45.582;5.298;2022-10-15T14:12:13;24.90;51.70
33827;DHT22;20128;45.582;5.298;2022-10-15T14:14:43;24.90;51.00
33827;DHT22;20128;45.582;5.298;2022-10-15T14:17:26;25.00;50.80
33827;DHT22;20128;45.582;5.298;2022-10-15T14:19:59;25.10;51.80
33827;DHT22;20128;45.582;5.298;2022-10-15T14:22:29;25.20;51.90
33827;DHT22;20128;45.582;5.298;2022-10-15T14:24:56;25.20;51.50
33827;DHT22;20128;45.582;5.298;2022-10-15T14:27:27;25.30;50.70
33827;DHT22;20128;45.582;5.298;2022-10-15T14:29:59;25.30;52.00
33827;DHT22;20128;45.582;5.298;2022-10-15T14:32:43;25.20;51.10
33827;DHT22;20128;45.582;5.298;2022-10-15T14:35:44;25.00;50.70
33827;DHT22;20128;45.582;5.298;2022-10-15T14:40:36;24.80;52.40
33827;DHT22;20128;45.582;5.298;2022-10-15T14:43:04;24.70;51.50
33827;DHT22;20128;45.582;5.298;2022-10-15T14:45:56;24.70;49.90
33827;DHT22;20128;45.582;5.298;2022-10-15T14:48:34;24.60;52.20
33827;DHT22;20128;45.582;5.298;2022-10-15T14:51:07;24.50;51.40
33827;DHT22;20128;45.582;5.298;2022-10-15T14:53:38;24.50;53.20
33827;DHT22;20128;45.582;5.298;2022-10-15T14:56:24;24.50;54.40
33827;DHT22;20128;45.582;5.298;2022-10-15T14:58:55;24.40;55.20
33827;DHT22;20128;45.582;5.298;2022-10-15T15:01:24;24.30;54.50
33827;DHT22;20128;45.582;5.298;2022-10-15T15:03:54;24.20;55.90
33827;DHT22;20128;45.582;5.298;2022-10-15T15:06:25;24.10;55.20
33827;DHT22;20128;45.582;5.298;2022-10-15T15:09:23;24.10;56.30
33827;DHT22;20128;45.582;5.298;2022-10-15T15:12:22;24.00;57.30
33827;DHT22;20128;45.582;5.298;2022-10-15T15:14:58;24.00;57.50
33827;DHT22;20128;45.582;5.298;2022-10-15T15:17:32;24.00;58.10
33827;DHT22;20128;45.582;5.298;2022-10-15T15:20:17;23.90;58.40
33827;DHT22;20128;45.582;5.298;2022-10-15T15:23:18;23.80;58.50
33827;DHT22;20128;45.582;5.298;2022-10-15T15:26:20;23.80;59.40
33827;DHT22;20128;45.582;5.298;2022-10-15T15:28:57;23.70;59.70
33827;DHT22;20128;45.582;5.298;2022-10-15T15:31:37;23.50;60.00
33827;DHT22;20128;45.582;5.298;2022-10-15T15:34:09;23.50;60.60
33827;DHT22;20128;45.582;5.298;2022-10-15T15:36:35;23.50;61.10
33827;DHT22;20128;45.582;5.298;2022-10-15T15:39:04;23.40;60.90
33827;DHT22;20128;45.582;5.298;2022-10-15T15:41:35;23.40;61.20
33827;DHT22;20128;45.582;5.298;2022-10-15T15:44:04;23.30;61.70
33827;DHT22;20128;45.582;5.298;2022-10-15T15:46:35;23.30;61.90
33827;DHT22;20128;45.582;5.298;2022-10-15T15:49:06;23.20;62.10
33827;DHT22;20128;45.582;5.298;2022-10-15T15:51:35;23.20;62.40
33827;DHT22;20128;45.582;5.298;2022-10-15T15:54:01;23.10;62.30
33827;DHT22;20128;45.582;5.298;2022-10-15T15:56:32;23.10;62.40
33827;DHT22;20128;45.582;5.298;2022-10-15T15:58:59;22.90;62.80
33827;DHT22;20128;45.582;5.298;2022-10-15T16:01:35;23.00;63.00
33827;DHT22;20128;45.582;5.298;2022-10-15T16:04:07;22.90;63.00
33827;DHT22;20128;45.582;5.298;2022-10-15T16:06:36;22.90;63.10
33827;DHT22;20128;45.582;5.298;2022-10-15T16:09:05;22.90;63.30
33827;DHT22;20128;45.582;5.298;2022-10-15T16:11:34;22.90;63.60
33827;DHT22;20128;45.582;5.298;2022-10-15T16:14:06;22.80;63.60
33827;DHT22;20128;45.582;5.298;2022-10-15T16:16:35;22.80;63.60
33827;DHT22;20128;45.582;5.298;2022-10-15T16:19:09;22.80;63.80
33827;DHT22;20128;45.582;5.298;2022-10-15T16:21:34;22.70;64.00
33827;DHT22;20128;45.582;5.298;2022-10-15T16:24:00;22.70;63.80
33827;DHT22;20128;45.582;5.298;2022-10-15T16:26:33;22.70;64.10
33827;DHT22;20128;45.582;5.298;2022-10-15T16:29:04;22.60;64.30
33827;DHT22;20128;45.582;5.298;2022-10-15T16:31:33;22.60;64.60
33827;DHT22;20128;45.582;5.298;2022-10-15T16:34:04;22.50;64.60
33827;DHT22;20128;45.582;5.298;2022-10-15T16:36:36;22.50;64.80
33827;DHT22;20128;45.582;5.298;2022-10-15T16:39:10;22.50;65.00
33827;DHT22;20128;45.582;5.298;2022-10-15T16:41:39;22.50;65.10
33827;DHT22;20128;45.582;5.298;2022-10-15T16:44:05;22.40;65.00
33827;DHT22;20128;45.582;5.298;2022-10-15T16:46:33;22.40;65.00
33827;DHT22;20128;45.582;5.298;2022-10-15T16:48:59;22.40;65.10
33827;DHT22;20128;45.582;5.298;2022-10-15T16:51:25;22.40;64.70
33827;DHT22;20128;45.582;5.298;2022-10-15T16:54:12;22.40;65.00
33827;DHT22;20128;45.582;5.298;2022-10-15T16:56:40;22.30;64.90
33827;DHT22;20128;45.582;5.298;2022-10-15T16:59:05;22.30;65.10
33827;DHT22;20128;45.582;5.298;2022-10-15T17:01:31;22.30;65.50
33827;DHT22;20128;45.582;5.298;2022-10-15T17:04:14;22.20;63.60
33827;DHT22;20128;45.582;5.298;2022-10-15T17:06:39;22.20;63.30
33827;DHT22;20128;45.582;5.298;2022-10-15T17:09:05;22.00;64.20
33827;DHT22;20128;45.582;5.298;2022-10-15T17:11:33;22.00;64.10
33827;DHT22;20128;45.582;5.298;2022-10-15T17:14:08;22.00;63.50
33827;DHT22;20128;45.582;5.298;2022-10-15T17:16:42;22.10;63.90
33827;DHT22;20128;45.582;5.298;2022-10-15T17:19:09;22.10;64.10
33827;DHT22;20128;45.582;5.298;2022-10-15T17:21:36;22.00;64.20
33827;DHT22;20128;45.582;5.298;2022-10-15T17:24:13;22.00;64.60
33827;DHT22;20128;45.582;5.298;2022-10-15T17:26:40;22.00;64.70
33827;DHT22;20128;45.582;5.298;2022-10-15T17:29:15;21.90;64.30
33827;DHT22;20128;45.582;5.298;2022-10-15T17:31:50;21.90;64.70
33827;DHT22;20128;45.582;5.298;2022-10-15T17:34:44;21.90;65.00
33827;DHT22;20128;45.582;5.298;2022-10-15T17:37:12;21.80;64.90
33827;DHT22;20128;45.582;5.298;2022-10-15T17:39:38;21.80;64.60
33827;DHT22;20128;45.582;5.298;2022-10-15T17:42:12;21.80;63.70
33827;DHT22;20128;45.582;5.298;2022-10-15T17:44:40;21.70;64.60
33827;DHT22;20128;45.582;5.298;2022-10-15T17:47:05;21.70;62.70
33827;DHT22;20128;45.582;5.298;2022-10-15T17:49:45;21.70;61.80
33827;DHT22;20128;45.582;5.298;2022-10-15T17:55:02;21.60;62.10
33827;DHT22;20128;45.582;5.298;2022-10-15T17:57:40;21.60;61.10
33827;DHT22;20128;45.582;5.298;2022-10-15T18:00:06;21.60;61.40
33827;DHT22;20128;45.582;5.298;2022-10-15T18:02:35;21.60;61.20
33827;DHT22;20128;45.582;5.298;2022-10-15T18:05:04;21.60;60.90
33827;DHT22;20128;45.582;5.298;2022-10-15T18:07:35;21.60;62.10
33827;DHT22;20128;45.582;5.298;2022-10-15T18:10:00;21.60;62.20
33827;DHT22;20128;45.582;5.298;2022-10-15T18:12:39;21.60;61.90
33827;DHT22;20128;45.582;5.298;2022-10-15T18:15:06;21.60;62.90
33827;DHT22;20128;45.582;5.298;2022-10-15T18:17:34;21.50;63.30
33827;DHT22;20128;45.582;5.298;2022-10-15T18:20:06;21.50;63.60
33827;DHT22;20128;45.582;5.298;2022-10-15T18:22:36;21.50;64.00
33827;DHT22;20128;45.582;5.298;2022-10-15T18:25:05;21.50;64.20
33827;DHT22;20128;45.582;5.298;2022-10-15T18:27:46;21.50;64.10
33827;DHT22;20128;45.582;5.298;2022-10-15T18:30:18;21.40;63.80
33827;DHT22;20128;45.582;5.298;2022-10-15T18:32:48;21.30;63.90
33827;DHT22;20128;45.582;5.298;2022-10-15T18:35:14;21.30;64.40
33827;DHT22;20128;45.582;5.298;2022-10-15T18:37:40;21.40;64.80
33827;DHT22;20128;45.582;5.298;2022-10-15T18:40:08;21.40;65.00
33827;DHT22;20128;45.582;5.298;2022-10-15T18:42:34;21.40;65.10
33827;DHT22;20128;45.582;5.298;2022-10-15T18:45:03;21.40;64.80
33827;DHT22;20128;45.582;5.298;2022-10-15T18:47:34;21.30;64.80
33827;DHT22;20128;45.582;5.298;2022-10-15T18:50:12;21.40;65.20
33827;DHT22;20128;45.582;5.298;2022-10-15T18:52:45;21.30;65.20